Terminal Aerodrome Forecast
Issued by NWS

Home | Current Version | Previous Version | Text Only | Print | Product List | Glossary Off
Versions: 1 2 3 4 5 6 7 8 9 10 11 12 13

943
FTUS43 KMPX 011120
TAFRWF
TAF
KRWF 011120Z 0112/0212 02010KT P6SM OVC060
     FM011300 03009G16KT P6SM FEW060 SCT200
     FM020000 VRB03KT P6SM SKC=

USA.gov is the U.S. government's official web portal to all federal, state and local government web resources and services.